Time;durP1;ratioP1;P1;durP2;ratioP2;P2;SDS_P1;SDS_P2;PMS_P1;PMS_P2;Temp;Humidity;BMP_temperature;BMP_pressure;BME280_temperature;BME280_humidity;BME280_pressure;Samples;Min_cycle;Max_cycle;Signal;HPM_P1;HPM_P2
2024/02/01 00:00:25;;;;;;;1.55;0.80;;;8.90;1.00;;;;;;4983762;28;20022;-74
2024/02/01 00:02:52;;;;;;;0.98;0.90;;;9.00;1.00;;;;;;4983458;28;20045;-74
2024/02/01 00:05:18;;;;;;;0.60;0.60;;;9.00;1.00;;;;;;4981210;28;20031;-74
2024/02/01 00:07:45;;;;;;;1.80;0.77;;;9.00;1.00;;;;;;4978135;28;20026;-76
2024/02/01 00:10:11;;;;;;;3.05;1.35;;;9.00;1.00;;;;;;4981548;28;20026;-75
2024/02/01 00:12:37;;;;;;;0.93;0.40;;;9.00;1.00;;;;;;4985539;28;20022;-75
2024/02/01 00:15:04;;;;;;;0.25;0.25;;;8.90;1.00;;;;;;4979068;28;20050;-75
2024/02/01 00:17:30;;;;;;;0.10;0.10;;;8.80;1.00;;;;;;4970499;28;20035;-75
2024/02/01 00:19:56;;;;;;;1.75;0.52;;;8.70;1.00;;;;;;4979322;28;20043;-76
2024/02/01 00:22:22;;;;;;;0.25;0.25;;;8.70;1.00;;;;;;4984477;28;20039;-75
2024/02/01 00:24:49;;;;;;;0.45;0.45;;;8.70;1.00;;;;;;4985466;28;20026;-75
2024/02/01 00:27:16;;;;;;;0.30;0.30;;;8.70;1.00;;;;;;4982075;28;20027;-75
2024/02/01 00:29:42;;;;;;;0.47;0.32;;;8.60;1.00;;;;;;4975788;28;20030;-75
2024/02/01 00:32:08;;;;;;;0.55;0.55;;;8.50;1.00;;;;;;4977364;28;20034;-75
2024/02/01 00:34:34;;;;;;;0.45;0.45;;;8.50;1.00;;;;;;4988040;28;20042;-75
2024/02/01 00:37:00;;;;;;;0.28;0.28;;;8.50;1.00;;;;;;4984465;28;20042;-75
2024/02/01 00:39:26;;;;;;;0.38;0.38;;;8.50;1.00;;;;;;4983502;28;20033;-75
2024/02/01 00:41:53;;;;;;;0.15;0.15;;;8.50;1.00;;;;;;4984251;28;20039;-74
2024/02/01 00:44:19;;;;;;;1.08;0.98;;;8.50;1.00;;;;;;4988068;28;20371;-75
2024/02/01 00:46:45;;;;;;;0.85;0.68;;;8.60;1.00;;;;;;4986926;28;20464;-75
2024/02/01 00:49:12;;;;;;;0.30;0.30;;;8.60;1.00;;;;;;4983518;28;20039;-75
2024/02/01 00:51:38;;;;;;;0.20;0.20;;;8.50;1.00;;;;;;4982046;28;20364;-76
2024/02/01 00:54:04;;;;;;;0.32;0.32;;;8.50;1.00;;;;;;4986260;28;20460;-75
2024/02/01 00:56:31;;;;;;;0.17;0.17;;;8.50;1.00;;;;;;4987459;28;20034;-74
2024/02/01 00:58:57;;;;;;;2.35;1.65;;;8.50;1.00;;;;;;4983950;28;20471;-75
2024/02/01 01:01:23;;;;;;;1.50;0.93;;;8.40;1.00;;;;;;4984751;28;20046;-75
2024/02/01 01:03:49;;;;;;;0.57;0.57;;;8.40;1.00;;;;;;4986478;28;20460;-75
2024/02/01 01:06:15;;;;;;;0.75;0.75;;;8.30;1.00;;;;;;4988920;28;20049;-75
2024/02/01 01:08:42;;;;;;;0.35;0.25;;;8.40;1.00;;;;;;4986093;28;20035;-75
2024/02/01 01:11:08;;;;;;;0.30;0.30;;;8.40;1.00;;;;;;4983451;28;20031;-75
2024/02/01 01:13:34;;;;;;;0.20;0.20;;;8.30;1.00;;;;;;4983006;28;20034;-75
2024/02/01 01:16:00;;;;;;;0.38;0.38;;;8.30;1.00;;;;;;4987303;28;20397;-75
2024/02/01 01:18:27;;;;;;;0.10;0.10;;;8.20;1.00;;;;;;4987523;28;20050;-75
2024/02/01 01:20:55;;;;;;;0.13;0.13;;;8.20;1.00;;;;;;4984476;28;20039;-74
2024/02/01 01:23:21;;;;;;;0.35;0.35;;;8.20;1.00;;;;;;4984065;28;20030;-75
2024/02/01 01:25:47;;;;;;;0.20;0.20;;;8.30;1.00;;;;;;4982302;28;20483;-75
2024/02/01 01:28:13;;;;;;;1.38;0.40;;;8.30;1.00;;;;;;5003722;28;20045;-75
2024/02/01 01:30:39;;;;;;;0.38;0.38;;;8.30;1.00;;;;;;4988954;28;20043;-75
2024/02/01 01:33:05;;;;;;;0.82;0.82;;;8.30;1.00;;;;;;4977375;28;20034;-74
2024/02/01 01:35:31;;;;;;;0.20;0.20;;;8.30;1.00;;;;;;4971931;28;20050;-76
2024/02/01 01:37:58;;;;;;;0.20;0.20;;;8.30;1.00;;;;;;4981357;28;20034;-75
2024/02/01 01:40:24;;;;;;;2.60;0.95;;;8.40;1.00;;;;;;4989748;28;20034;-75
2024/02/01 01:42:51;;;;;;;0.30;0.30;;;8.30;1.00;;;;;;4982135;28;20023;-74
2024/02/01 01:45:17;;;;;;;0.13;0.13;;;8.30;1.00;;;;;;4981808;28;20046;-75
2024/02/01 01:47:44;;;;;;;0.50;0.50;;;8.30;1.00;;;;;;4971583;28;20054;-75
2024/02/01 01:50:10;;;;;;;0.13;0.13;;;8.30;1.00;;;;;;4987630;28;20053;-77
2024/02/01 01:52:38;;;;;;;0.35;0.35;;;8.30;1.00;;;;;;4985557;28;20023;-75
2024/02/01 01:55:06;;;;;;;0.75;0.75;;;8.40;1.00;;;;;;4979245;28;20031;-76
2024/02/01 01:57:33;;;;;;;1.20;0.98;;;8.40;1.00;;;;;;4984373;28;20042;-76
2024/02/01 02:00:00;;;;;;;0.40;0.40;;;8.40;1.00;;;;;;5001282;28;20045;-76
2024/02/01 02:02:29;;;;;;;0.30;0.30;;;8.40;1.00;;;;;;4987111;28;20383;-76
2024/02/01 02:04:57;;;;;;;0.55;0.55;;;8.40;1.00;;;;;;4983295;28;20030;-76
2024/02/01 02:07:23;;;;;;;0.10;0.10;;;8.40;1.00;;;;;;4988335;28;20042;-76
2024/02/01 02:09:49;;;;;;;0.22;0.22;;;8.50;1.00;;;;;;4988272;28;20573;-76
2024/02/01 02:12:15;;;;;;;0.47;0.20;;;8.40;1.00;;;;;;4986396;28;20030;-76
2024/02/01 02:14:42;;;;;;;0.65;0.65;;;8.50;1.00;;;;;;4981691;28;20034;-76
2024/02/01 02:17:08;;;;;;;0.10;0.10;;;8.50;1.00;;;;;;4978728;28;20045;-76
2024/02/01 02:19:35;;;;;;;0.35;0.35;;;8.60;1.00;;;;;;4989395;28;20085;-76
2024/02/01 02:22:01;;;;;;;0.75;0.75;;;8.60;1.00;;;;;;4996286;28;20049;-76
2024/02/01 02:24:27;;;;;;;0.40;0.40;;;8.70;1.00;;;;;;4991172;28;20033;-76
2024/02/01 02:26:53;;;;;;;0.22;0.22;;;8.70;1.00;;;;;;4981265;28;20415;-76
2024/02/01 02:29:19;;;;;;;6.05;0.85;;;8.80;1.00;;;;;;4984526;28;20049;-76
2024/02/01 02:31:47;;;;;;;0.10;0.10;;;8.80;1.00;;;;;;4983478;28;20445;-76
2024/02/01 02:34:13;;;;;;;0.20;0.20;;;8.70;1.00;;;;;;4999576;28;20043;-76
2024/02/01 02:36:40;;;;;;;0.17;0.17;;;8.70;1.00;;;;;;4982311;28;20058;-76
2024/02/01 02:39:11;;;;;;;1.90;0.60;;;8.70;1.00;;;;;;4980827;28;20046;-76
2024/02/01 02:41:38;;;;;;;0.60;0.60;;;8.70;1.00;;;;;;4983858;28;20396;-76
2024/02/01 02:44:07;;;;;;;0.85;0.40;;;8.70;1.00;;;;;;4984776;28;20027;-76
2024/02/01 02:46:34;;;;;;;0.55;0.30;;;8.70;1.00;;;;;;4980854;28;20037;-76
2024/02/01 02:49:00;;;;;;;0.30;0.30;;;8.60;1.00;;;;;;4980834;28;20248;-76
2024/02/01 02:51:27;;;;;;;0.47;0.47;;;8.60;1.00;;;;;;4984089;28;20048;-76
2024/02/01 02:53:53;;;;;;;0.43;0.43;;;8.60;1.00;;;;;;4987530;28;20026;-76
2024/02/01 02:56:21;;;;;;;0.15;0.15;;;8.50;1.00;;;;;;4987042;28;20022;-76
2024/02/01 02:58:48;;;;;;;0.22;0.20;;;8.50;1.00;;;;;;4980041;28;20042;-76
2024/02/01 03:01:14;;;;;;;0.30;0.20;;;8.50;1.00;;;;;;4983859;28;20037;-76
2024/02/01 03:03:40;;;;;;;0.20;0.20;;;8.40;1.00;;;;;;4984711;28;20375;-76
2024/02/01 03:06:08;;;;;;;0.93;0.52;;;8.40;1.00;;;;;;4985090;28;20383;-76
2024/02/01 03:08:34;;;;;;;0.40;0.30;;;8.40;1.00;;;;;;4983495;28;20046;-75
2024/02/01 03:11:01;;;;;;;0.10;0.10;;;8.40;1.00;;;;;;4983417;28;20031;-76
2024/02/01 03:13:27;;;;;;;0.57;0.57;;;8.30;1.00;;;;;;4984006;28;20026;-76
2024/02/01 03:15:53;;;;;;;0.20;0.20;;;8.30;1.00;;;;;;4985983;28;20046;-76
2024/02/01 03:18:22;;;;;;;0.45;0.45;;;8.30;1.00;;;;;;4980996;28;20031;-76
2024/02/01 03:20:49;;;;;;;0.85;0.85;;;8.30;1.00;;;;;;4977915;28;20042;-76
2024/02/01 03:23:16;;;;;;;0.80;0.47;;;8.30;1.00;;;;;;4983436;28;20098;-76
2024/02/01 03:25:42;;;;;;;0.85;0.57;;;8.20;1.00;;;;;;4986275;28;20034;-76
2024/02/01 03:28:09;;;;;;;2.17;0.73;;;8.20;1.00;;;;;;4982093;28;20030;-76
2024/02/01 03:30:38;;;;;;;0.25;0.25;;;8.20;1.00;;;;;;4982811;28;20034;-75
2024/02/01 03:33:05;;;;;;;1.25;0.90;;;8.20;1.00;;;;;;4980989;28;20027;-75
2024/02/01 03:35:31;;;;;;;1.02;0.65;;;8.20;5.00;;;;;;4985663;28;20460;-75
2024/02/01 03:38:01;;;;;;;0.38;0.35;;;8.20;11.80;;;;;;4997541;28;20042;-75
2024/02/01 03:40:27;;;;;;;0.38;0.38;;;8.10;26.20;;;;;;4980880;28;20053;-75
2024/02/01 03:42:53;;;;;;;1.33;1.23;;;8.20;20.90;;;;;;4980935;28;20038;-75
2024/02/01 03:45:20;;;;;;;0.10;0.10;;;8.10;29.20;;;;;;4983118;28;20041;-75
2024/02/01 03:47:46;;;;;;;0.28;0.28;;;8.10;58.20;;;;;;4983979;28;20038;-75
2024/02/01 03:50:13;;;;;;;0.10;0.10;;;8.10;99.90;;;;;;4984157;28;20034;-76
2024/02/01 03:52:43;;;;;;;0.50;0.50;;;8.00;99.90;;;;;;4979929;28;20030;-75
2024/02/01 03:55:16;;;;;;;0.90;0.65;;;7.90;99.90;;;;;;4981076;28;20030;-75
2024/02/01 03:57:46;;;;;;;0.40;0.40;;;7.70;1.00;;;;;;4987924;28;20039;-75
2024/02/01 04:00:30;;;;;;;0.68;0.50;;;7.50;1.00;;;;;;4983528;28;20030;-75
2024/02/01 04:03:03;;;;;;;0.60;0.40;;;7.40;47.90;;;;;;4981084;28;20456;-74
2024/02/01 04:05:37;;;;;;;0.55;0.55;;;7.40;99.90;;;;;;4986902;28;20051;-75
2024/02/01 04:08:07;;;;;;;0.55;0.30;;;7.30;99.90;;;;;;4985738;28;20034;-75
2024/02/01 04:10:37;;;;;;;0.35;0.35;;;7.20;99.90;;;;;;4989482;28;20046;-75
2024/02/01 04:13:07;;;;;;;5.82;1.67;;;7.20;99.90;;;;;;4979624;28;20043;-75
2024/02/01 04:15:37;;;;;;;0.35;0.35;;;7.20;99.90;;;;;;4986796;28;20031;-75
2024/02/01 04:18:04;;;;;;;0.30;0.30;;;7.20;99.90;;;;;;4984473;28;20034;-75
2024/02/01 04:20:31;;;;;;;1.23;0.85;;;7.10;99.90;;;;;;4989957;28;20033;-75
2024/02/01 04:22:57;;;;;;;0.60;0.60;;;7.10;1.00;;;;;;4984508;28;20041;-75
2024/02/01 04:25:24;;;;;;;0.10;0.10;;;7.10;1.00;;;;;;4985092;28;20383;-75
2024/02/01 04:27:51;;;;;;;0.50;0.50;;;7.10;1.00;;;;;;4984882;28;20491;-76
2024/02/01 04:30:20;;;;;;;0.57;0.57;;;7.10;1.00;;;;;;4988765;28;20045;-76
2024/02/01 04:32:47;;;;;;;1.17;0.70;;;7.10;1.00;;;;;;4986397;28;20041;-76
2024/02/01 04:35:14;;;;;;;0.20;0.20;;;7.20;1.00;;;;;;4989227;28;20033;-75
2024/02/01 04:37:42;;;;;;;0.30;0.30;;;7.10;1.00;;;;;;4999684;28;20049;-75
2024/02/01 04:40:09;;;;;;;3.80;0.43;;;7.20;1.00;;;;;;4986098;28;20038;-75
2024/02/01 04:42:35;;;;;;;0.10;0.10;;;7.20;1.00;;;;;;4987638;28;20034;-75
2024/02/01 04:45:05;;;;;;;0.65;0.65;;;7.20;1.00;;;;;;4983182;28;20027;-75
2024/02/01 04:47:35;;;;;;;0.77;0.77;;;7.20;1.00;;;;;;4984106;28;20026;-74
2024/02/01 04:50:03;;;;;;;0.98;0.90;;;7.20;1.00;;;;;;4985615;28;20281;-75
2024/02/01 04:52:30;;;;;;;0.25;0.25;;;7.20;38.90;;;;;;4987076;28;20030;-75
2024/02/01 04:54:59;;;;;;;0.10;0.10;;;7.20;52.90;;;;;;4991764;28;20055;-75
2024/02/01 04:57:26;;;;;;;0.43;0.22;;;7.10;99.90;;;;;;4986728;28;20045;-75
2024/02/01 04:59:52;;;;;;;0.50;0.40;;;7.10;99.90;;;;;;4986729;28;20023;-75
2024/02/01 05:02:20;;;;;;;0.77;0.77;;;7.10;99.90;;;;;;4990182;28;20022;-75
2024/02/01 05:04:47;;;;;;;0.10;0.10;;;7.10;99.90;;;;;;4993459;28;20041;-75
2024/02/01 05:07:13;;;;;;;0.55;0.55;;;7.10;1.00;;;;;;4991107;28;20039;-74
2024/02/01 05:09:41;;;;;;;0.10;0.10;;;7.10;1.00;;;;;;4985674;28;20052;-74
2024/02/01 05:12:07;;;;;;;0.10;0.10;;;7.10;1.00;;;;;;4987922;28;20217;-74
2024/02/01 05:14:35;;;;;;;0.10;0.10;;;7.10;1.00;;;;;;4986576;28;20022;-74
2024/02/01 05:17:02;;;;;;;0.30;0.30;;;7.10;1.00;;;;;;4976870;28;20035;-74
2024/02/01 05:19:28;;;;;;;0.10;0.10;;;7.10;1.00;;;;;;4984701;28;20047;-76
2024/02/01 05:21:55;;;;;;;0.50;0.50;;;7.00;1.00;;;;;;4986853;28;20026;-76
2024/02/01 05:24:22;;;;;;;0.55;0.47;;;7.10;1.00;;;;;;4988269;28;20031;-76
2024/02/01 05:26:52;;;;;;;0.88;0.63;;;7.10;11.50;;;;;;4984639;28;20059;-76
2024/02/01 05:29:18;;;;;;;0.25;0.25;;;7.10;29.50;;;;;;4985400;28;20027;-75
2024/02/01 05:31:47;;;;;;;1.00;0.85;;;7.00;87.20;;;;;;4985090;28;20033;-75
2024/02/01 05:34:15;;;;;;;0.20;0.20;;;7.10;99.40;;;;;;4986153;28;20474;-75
2024/02/01 05:36:46;;;;;;;0.32;0.32;;;7.10;99.90;;;;;;4985890;28;20061;-75
2024/02/01 05:39:25;;;;;;;0.20;0.20;;;7.10;99.90;;;;;;4981183;28;20053;-74
2024/02/01 05:42:06;;;;;;;0.20;0.20;;;7.10;99.90;;;;;;4989283;28;20038;-74
2024/02/01 05:44:33;;;;;;;0.47;0.47;;;7.00;99.90;;;;;;4986110;28;20380;-74
2024/02/01 05:46:59;;;;;;;0.20;0.20;;;7.00;99.90;;;;;;4984064;28;20030;-74
2024/02/01 05:49:28;;;;;;;1.13;0.40;;;7.00;99.90;;;;;;4983362;28;20317;-76
2024/02/01 05:51:59;;;;;;;1.55;0.80;;;7.00;99.90;;;;;;4983310;28;20034;-75
2024/02/01 05:54:25;;;;;;;;;;;7.10;99.90;;;;;;4988567;28;20112;-76
2024/02/01 05:56:52;;;;;;;0.25;0.25;;;7.00;99.90;;;;;;4989563;28;19902;-76
2024/02/01 05:59:20;;;;;;;0.40;0.40;;;7.00;99.90;;;;;;4985527;28;20476;-76
2024/02/01 06:01:47;;;;;;;0.10;0.10;;;7.00;99.90;;;;;;4987897;28;20027;-76
2024/02/01 06:04:14;;;;;;;1.25;0.95;;;7.10;99.90;;;;;;4984224;28;20027;-75
2024/02/01 06:06:44;;;;;;;0.30;0.30;;;7.00;99.90;;;;;;4986242;28;20030;-76
2024/02/01 06:09:11;;;;;;;0.30;0.30;;;7.00;99.90;;;;;;4983045;28;20039;-75
2024/02/01 06:11:45;;;;;;;0.70;0.70;;;7.00;99.90;;;;;;4995544;28;20054;-75
2024/02/01 06:14:15;;;;;;;0.30;0.30;;;7.00;99.90;;;;;;4987254;28;20384;-75
2024/02/01 06:16:43;;;;;;;0.30;0.30;;;7.10;99.90;;;;;;4984549;28;20031;-75
2024/02/01 06:19:09;;;;;;;0.20;0.20;;;7.10;99.90;;;;;;4983291;28;20047;-75
2024/02/01 06:21:35;;;;;;;5.35;1.10;;;7.10;99.90;;;;;;4982660;28;20026;-75
2024/02/01 06:24:02;;;;;;;0.68;0.68;;;7.10;99.90;;;;;;4979309;28;20031;-75
2024/02/01 06:26:29;;;;;;;0.73;0.73;;;7.10;99.90;;;;;;4984282;28;20034;-76
2024/02/01 06:28:58;;;;;;;0.22;0.22;;;7.10;99.90;;;;;;4984060;28;20049;-75
2024/02/01 06:31:27;;;;;;;1.08;0.68;;;7.10;99.90;;;;;;4986299;28;20411;-75
2024/02/01 06:33:54;;;;;;;1.00;0.93;;;7.20;99.90;;;;;;4983901;28;20047;-75
2024/02/01 06:36:23;;;;;;;0.95;0.93;;;7.10;99.90;;;;;;4988162;28;20047;-75
2024/02/01 06:41:29;;;;;;;0.93;0.88;;;7.10;99.90;;;;;;4984068;28;20038;-76
2024/02/01 06:46:49;;;;;;;8.00;2.08;;;7.10;99.90;;;;;;4983761;28;20033;-75
2024/02/01 06:49:39;;;;;;;1.48;0.85;;;7.10;99.90;;;;;;4986227;28;20041;-75
2024/02/01 06:54:50;;;;;;;3.97;1.65;;;7.10;99.90;;;;;;4980659;28;20038;-75
2024/02/01 06:57:22;;;;;;;5.68;2.10;;;7.10;99.90;;;;;;4978750;28;20027;-75
2024/02/01 07:02:47;;;;;;;1.40;1.30;;;7.20;99.90;;;;;;4986606;28;20037;-75
2024/02/01 07:05:46;;;;;;;0.65;0.65;;;7.20;99.90;;;;;;4984465;28;20046;-75
2024/02/01 07:08:26;;;;;;;11.80;2.08;;;7.20;99.90;;;;;;4997822;28;20042;-75
2024/02/01 07:11:01;;;;;;;1.48;1.38;;;7.20;99.90;;;;;;4982641;28;20035;-75
2024/02/01 07:13:57;;;;;;;18.70;2.00;;;7.20;99.90;;;;;;4980497;28;20037;-75
2024/02/01 07:19:23;;;;;;;6.50;3.45;;;7.20;99.90;;;;;;4980304;28;20472;-75
2024/02/01 07:22:00;;;;;;;3.40;2.78;;;7.20;99.90;;;;;;5000470;28;20411;-75
2024/02/01 07:24:49;;;;;;;1.30;1.20;;;7.20;99.90;;;;;;4987320;28;20033;-73
2024/02/01 08:00:27;;;;;;;0.30;0.30;;;7.20;99.90;;;;;;4979874;28;20387;-75
2024/02/01 08:03:03;;;;;;;1.48;0.88;;;7.20;99.90;;;;;;4983928;28;20038;-75
2024/02/01 08:08:18;;;;;;;0.30;0.30;;;7.20;99.90;;;;;;4980536;28;20038;-75
2024/02/01 08:10:47;;;;;;;0.25;0.25;;;7.30;99.90;;;;;;4978737;28;20043;-76
2024/02/01 08:13:13;;;;;;;0.25;0.25;;;7.30;99.90;;;;;;4982332;28;20384;-76
2024/02/01 08:15:42;;;;;;;0.40;0.40;;;7.30;99.90;;;;;;4981448;28;20041;-74
2024/02/01 08:18:09;;;;;;;2.40;1.10;;;7.30;99.90;;;;;;4980192;28;20022;-75
2024/02/01 08:20:39;;;;;;;2.33;1.05;;;7.30;99.90;;;;;;4979173;28;20027;-80
2024/02/01 08:23:07;;;;;;;0.52;0.52;;;7.30;99.90;;;;;;4982970;28;20030;-79
2024/02/01 08:25:33;;;;;;;1.35;0.98;;;7.30;99.90;;;;;;4983621;28;20050;-79
2024/02/01 08:28:00;;;;;;;0.25;0.25;;;7.30;99.90;;;;;;4983113;28;20027;-79
2024/02/01 08:30:31;;;;;;;1.55;1.05;;;7.30;99.90;;;;;;4980502;28;20387;-79
2024/02/01 08:33:05;;;;;;;0.17;0.17;;;7.40;99.90;;;;;;4994213;28;20027;-79
2024/02/01 08:35:36;;;;;;;0.68;0.68;;;7.40;99.90;;;;;;4984942;28;20368;-80
2024/02/01 08:38:04;;;;;;;0.95;0.63;;;7.40;99.90;;;;;;4982474;28;20030;-79
2024/02/01 08:40:30;;;;;;;0.57;0.57;;;7.40;99.90;;;;;;4981522;28;20053;-80
2024/02/01 08:43:00;;;;;;;0.50;0.50;;;7.50;99.90;;;;;;4976572;28;20037;-79
2024/02/01 08:45:27;;;;;;;0.35;0.35;;;7.40;99.90;;;;;;4986711;28;20054;-80
2024/02/01 08:48:02;;;;;;;0.63;0.63;;;7.40;99.90;;;;;;4984068;28;20030;-79
2024/02/01 08:50:30;;;;;;;0.55;0.55;;;7.40;99.90;;;;;;4986155;28;20034;-80
2024/02/01 08:52:56;;;;;;;1.48;1.00;;;7.50;99.90;;;;;;4985499;28;20023;-77
2024/02/01 08:55:23;;;;;;;0.60;0.60;;;7.40;99.90;;;;;;4986976;28;20034;-80
2024/02/01 08:57:49;;;;;;;0.68;0.68;;;7.50;99.90;;;;;;4985977;28;20088;-82
2024/02/01 09:00:25;;;;;;;3.92;1.73;;;7.40;99.90;;;;;;4987677;28;20034;-83
2024/02/01 09:05:43;;;;;;;1.20;1.17;;;7.50;99.90;;;;;;4985585;28;20356;-80
2024/02/01 09:08:14;;;;;;;0.40;0.40;;;7.50;99.90;;;;;;4961422;28;20042;-80
2024/02/01 09:10:57;;;;;;;2.05;0.85;;;7.50;99.90;;;;;;4986026;28;20046;-80
2024/02/01 09:13:25;;;;;;;0.10;0.10;;;7.60;99.90;;;;;;4989912;28;20045;-80
2024/02/01 09:15:52;;;;;;;1.02;0.98;;;7.60;99.90;;;;;;4990709;28;20031;-79
2024/02/01 09:18:18;;;;;;;2.28;1.83;;;7.60;99.90;;;;;;4983570;28;20118;-79
2024/02/01 09:20:46;;;;;;;3.60;1.65;;;7.60;99.90;;;;;;4986415;28;20030;-79
2024/02/01 09:23:12;;;;;;;2.45;1.27;;;7.60;99.90;;;;;;5001230;28;20373;-79
2024/02/01 09:25:40;;;;;;;0.50;0.50;;;7.60;99.90;;;;;;4981036;28;20039;-80
2024/02/01 09:28:14;;;;;;;0.57;0.35;;;7.60;99.90;;;;;;4980261;28;20037;-79
2024/02/01 09:30:45;;;;;;;0.20;0.20;;;7.70;99.90;;;;;;4985680;28;20042;-80
2024/02/01 09:33:15;;;;;;;0.60;0.60;;;7.70;99.90;;;;;;4989122;28;20506;-79
2024/02/01 09:35:42;;;;;;;0.30;0.30;;;7.80;99.90;;;;;;4985111;28;20054;-80
2024/02/01 09:38:10;;;;;;;0.20;0.20;;;7.70;99.90;;;;;;4980410;28;20074;-79
2024/02/01 09:40:42;;;;;;;1.20;1.10;;;7.80;99.90;;;;;;4990672;28;20030;-79
2024/02/01 09:43:21;;;;;;;0.57;0.57;;;7.80;99.90;;;;;;4984859;28;20041;-79
2024/02/01 09:45:52;;;;;;;1.45;1.27;;;7.90;99.90;;;;;;4984924;28;20058;-80
2024/02/01 09:48:19;;;;;;;0.65;0.65;;;7.90;99.90;;;;;;4984073;28;20038;-79
2024/02/01 09:50:53;;;;;;;0.52;0.52;;;7.90;99.90;;;;;;4985342;28;20031;-80
2024/02/01 09:53:24;;;;;;;1.17;1.02;;;8.10;99.90;;;;;;4987975;28;20034;-79
2024/02/01 09:55:52;;;;;;;0.50;0.50;;;8.10;99.90;;;;;;4987194;28;20042;-79
2024/02/01 09:58:19;;;;;;;2.45;2.10;;;8.10;99.90;;;;;;4982447;28;20038;-79
2024/02/01 10:00:46;;;;;;;0.85;0.85;;;8.20;99.90;;;;;;4981722;28;20045;-80
2024/02/01 10:03:14;;;;;;;2.33;2.22;;;8.20;99.90;;;;;;4985754;28;20030;-79
2024/02/01 10:05:43;;;;;;;5.28;4.90;;;8.20;99.90;;;;;;4974577;28;20042;-79
2024/02/01 10:08:14;;;;;;;2.85;2.65;;;8.30;99.90;;;;;;4979946;28;20299;-79
2024/02/01 10:10:41;;;;;;;1.45;1.23;;;8.40;99.90;;;;;;4997148;28;20034;-80
2024/02/01 10:13:18;;;;;;;1.85;1.65;;;8.40;99.90;;;;;;5002083;28;20035;-80
2024/02/01 10:15:48;;;;;;;1.05;0.77;;;8.40;99.90;;;;;;4990275;28;20517;-81
2024/02/01 10:18:16;;;;;;;6.70;3.65;;;8.40;99.90;;;;;;4986736;28;20054;-80
2024/02/01 10:20:53;;;;;;;5.43;3.08;;;8.60;99.90;;;;;;4984128;28;20042;-79
2024/02/01 10:23:20;;;;;;;0.73;0.73;;;8.60;99.90;;;;;;4987310;28;20043;-79
2024/02/01 10:25:49;;;;;;;4.00;0.82;;;8.60;99.90;;;;;;4992570;28;20030;-79
2024/02/01 10:28:21;;;;;;;0.93;0.90;;;8.70;99.90;;;;;;5000006;28;20043;-80
2024/02/01 10:30:49;;;;;;;3.40;1.17;;;8.70;99.90;;;;;;4999134;28;20026;-79
2024/02/01 10:33:19;;;;;;;0.70;0.70;;;8.80;99.90;;;;;;4988557;28;20030;-79
2024/02/01 10:35:48;;;;;;;0.57;0.57;;;8.80;99.90;;;;;;4986432;28;20038;-79
2024/02/01 10:38:21;;;;;;;0.98;0.98;;;8.90;99.90;;;;;;4981794;28;20054;-80
2024/02/01 10:41:15;;;;;;;3.10;1.08;;;9.00;99.90;;;;;;4980276;28;20042;-79
2024/02/01 10:43:46;;;;;;;0.52;0.52;;;9.10;99.90;;;;;;4984452;28;20367;-80
2024/02/01 10:46:30;;;;;;;0.65;0.65;;;9.20;99.90;;;;;;4987111;28;20034;-79
2024/02/01 10:49:17;;;;;;;1.13;1.02;;;9.20;99.90;;;;;;4983739;28;20034;-80
2024/02/01 10:51:50;;;;;;;0.25;0.25;;;9.20;99.90;;;;;;4980319;28;20042;-79
2024/02/01 10:54:18;;;;;;;0.85;0.57;;;9.30;99.90;;;;;;4986626;28;20033;-79
2024/02/01 10:56:45;;;;;;;0.50;0.50;;;9.30;99.90;;;;;;4984532;28;20053;-79
2024/02/01 10:59:12;;;;;;;1.65;0.73;;;9.30;99.90;;;;;;4989123;28;20034;-79
2024/02/01 11:01:40;;;;;;;0.40;0.40;;;9.40;99.90;;;;;;4982290;28;20034;-80
2024/02/01 11:04:09;;;;;;;1.17;1.08;;;9.50;99.90;;;;;;4982890;28;20042;-79
2024/02/01 11:06:38;;;;;;;2.13;0.77;;;9.60;78.70;;;;;;4984563;28;20038;-80
2024/02/01 11:09:19;;;;;;;0.73;0.73;;;9.60;1.00;;;;;;4999478;28;20496;-79
2024/02/01 11:11:54;;;;;;;0.65;0.38;;;9.60;1.00;;;;;;4981503;28;20053;-80
2024/02/01 11:14:26;;;;;;;0.30;0.30;;;9.50;1.00;;;;;;4976111;28;20034;-80
2024/02/01 11:17:02;;;;;;;0.47;0.40;;;9.50;1.00;;;;;;4984451;28;20063;-79
2024/02/01 11:19:33;;;;;;;0.65;0.55;;;9.40;1.00;;;;;;4984022;28;20050;-80
2024/02/01 11:22:01;;;;;;;0.35;0.32;;;9.40;1.00;;;;;;4983551;28;20034;-80
2024/02/01 11:24:30;;;;;;;0.22;0.22;;;9.50;1.00;;;;;;4977279;28;20038;-80
2024/02/01 11:26:58;;;;;;;0.90;0.32;;;9.50;1.00;;;;;;4998627;28;20046;-80
2024/02/01 11:29:26;;;;;;;0.10;0.10;;;9.50;1.00;;;;;;4983044;28;20038;-79
2024/02/01 11:31:57;;;;;;;0.35;0.35;;;9.50;1.00;;;;;;4984407;28;20026;-80
2024/02/01 11:34:27;;;;;;;1.35;0.52;;;9.60;99.90;;;;;;4978969;28;20030;-79
2024/02/01 11:36:57;;;;;;;0.28;0.28;;;9.60;99.90;;;;;;4980649;28;20047;-79
2024/02/01 11:39:23;;;;;;;0.40;0.32;;;9.60;99.90;;;;;;4984917;28;20043;-80
2024/02/01 11:41:51;;;;;;;0.63;0.55;;;9.70;99.90;;;;;;4985972;28;20041;-79
2024/02/01 11:44:18;;;;;;;0.20;0.20;;;9.70;99.90;;;;;;4981781;28;20479;-81
2024/02/01 11:46:45;;;;;;;0.38;0.25;;;9.70;99.90;;;;;;4976501;28;20053;-80
2024/02/01 11:49:20;;;;;;;0.63;0.28;;;9.70;99.90;;;;;;4985149;28;20486;-80
2024/02/01 11:52:13;;;;;;;0.47;0.35;;;9.70;99.90;;;;;;4985221;28;20460;-80
2024/02/01 11:54:46;;;;;;;0.65;0.47;;;9.70;99.90;;;;;;4984700;28;20049;-80
2024/02/01 11:57:17;;;;;;;0.20;0.20;;;9.70;99.90;;;;;;4980683;28;20042;-80
2024/02/01 11:59:44;;;;;;;0.93;0.80;;;9.80;99.90;;;;;;4988436;28;20364;-80
2024/02/01 12:02:11;;;;;;;0.35;0.25;;;9.80;99.90;;;;;;4984231;28;20030;-80
2024/02/01 12:04:40;;;;;;;0.55;0.40;;;9.80;99.90;;;;;;4981184;28;20046;-80
2024/02/01 12:07:08;;;;;;;0.13;0.13;;;9.90;99.90;;;;;;4979927;28;20041;-80
2024/02/01 12:09:38;;;;;;;0.35;0.35;;;9.90;99.90;;;;;;4982129;28;20046;-80
2024/02/01 12:12:05;;;;;;;1.98;0.70;;;10.00;99.90;;;;;;4983937;28;20038;-78
2024/02/01 12:14:32;;;;;;;0.95;0.28;;;10.00;99.90;;;;;;4999214;28;20042;-81
2024/02/01 12:17:02;;;;;;;0.32;0.32;;;10.10;99.90;;;;;;4982379;28;20026;-81
2024/02/01 12:19:37;;;;;;;0.73;0.73;;;10.10;99.90;;;;;;4980228;28;20053;-81
2024/02/01 12:22:07;;;;;;;0.38;0.38;;;10.10;99.90;;;;;;4984971;28;20132;-79
2024/02/01 12:24:38;;;;;;;0.10;0.10;;;10.20;96.50;;;;;;4996934;28;20038;-79
2024/02/01 12:27:06;;;;;;;;;;;10.20;91.70;;;;;;4986866;28;20357;-79
2024/02/01 12:29:33;;;;;;;0.45;0.20;;;10.30;45.90;;;;;;4987244;28;19906;-80
2024/02/01 12:31:59;;;;;;;0.70;0.15;;;10.40;79.50;;;;;;4987673;28;20042;-80
2024/02/01 12:34:26;;;;;;;0.10;0.10;;;10.50;37.50;;;;;;4987645;28;20464;-79
2024/02/01 12:36:53;;;;;;;0.52;0.40;;;10.60;1.00;;;;;;4984676;28;20053;-80
2024/02/01 12:39:20;;;;;;;0.47;0.38;;;10.80;1.00;;;;;;4984138;28;20042;-81
2024/02/01 12:41:46;;;;;;;0.10;0.10;;;11.20;1.00;;;;;;4986995;28;20038;-81
2024/02/01 12:44:13;;;;;;;0.40;0.40;;;11.40;1.00;;;;;;5002445;28;20038;-81
2024/02/01 12:46:42;;;;;;;0.30;0.30;;;11.50;1.00;;;;;;4986950;28;20026;-81
2024/02/01 12:49:12;;;;;;;1.23;1.13;;;11.60;1.00;;;;;;4983613;28;20035;-80
2024/02/01 12:51:42;;;;;;;0.20;0.20;;;11.60;99.90;;;;;;4998130;28;20065;-80
2024/02/01 12:54:10;;;;;;;1.25;0.43;;;11.60;99.90;;;;;;4988631;28;20369;-80
2024/02/01 12:56:36;;;;;;;0.40;0.40;;;11.40;99.90;;;;;;4989966;28;20353;-80
2024/02/01 12:59:04;;;;;;;0.30;0.30;;;11.40;99.90;;;;;;4978576;28;20034;-81
2024/02/01 13:01:33;;;;;;;0.20;0.20;;;11.30;99.90;;;;;;4993327;28;20038;-80
2024/02/01 13:04:01;;;;;;;0.20;0.20;;;11.10;99.90;;;;;;4992954;28;20026;-80
2024/02/01 13:06:27;;;;;;;0.38;0.38;;;10.90;99.90;;;;;;4994151;28;20026;-80
2024/02/01 13:08:53;;;;;;;0.52;0.32;;;10.80;99.90;;;;;;4988402;28;20038;-80
2024/02/01 13:11:42;;;;;;;0.30;0.30;;;10.70;99.90;;;;;;5005651;28;20019;-81
2024/02/01 13:14:06;;;;;;;0.30;0.30;;;10.70;99.90;;;;;;5006720;28;20041;-80
2024/02/01 13:16:33;;;;;;;0.13;0.13;;;10.70;99.90;;;;;;4991914;28;20041;-80
2024/02/01 13:18:59;;;;;;;0.30;0.30;;;10.60;99.90;;;;;;4989225;28;20379;-80
2024/02/01 13:21:25;;;;;;;0.38;0.38;;;10.70;99.90;;;;;;4982746;28;20034;-80
2024/02/01 13:23:51;;;;;;;0.32;0.30;;;10.80;99.90;;;;;;4986948;28;20037;-80
2024/02/01 13:26:18;;;;;;;0.10;0.10;;;10.80;99.90;;;;;;4985662;28;20041;-80
2024/02/01 13:28:45;;;;;;;0.10;0.10;;;10.80;99.90;;;;;;4988143;28;20034;-79
2024/02/01 13:31:12;;;;;;;0.10;0.10;;;10.90;99.90;;;;;;4981855;28;20026;-79
2024/02/01 13:33:39;;;;;;;0.10;0.10;;;10.90;99.90;;;;;;4986838;28;20030;-79
2024/02/01 13:36:10;;;;;;;0.45;0.43;;;10.90;99.90;;;;;;4999190;28;20050;-79
2024/02/01 13:38:36;;;;;;;0.10;0.10;;;11.00;99.90;;;;;;4985931;28;20039;-79
2024/02/01 13:41:03;;;;;;;0.10;0.10;;;11.00;99.90;;;;;;4985791;28;20934;-80
2024/02/01 13:43:29;;;;;;;0.10;0.10;;;11.00;99.90;;;;;;4988904;28;20494;-79
2024/02/01 13:45:55;;;;;;;0.10;0.10;;;10.80;99.90;;;;;;4980922;28;20038;-79
2024/02/01 13:48:24;;;;;;;0.15;0.13;;;10.80;99.90;;;;;;4986225;28;20023;-79
2024/02/01 13:50:50;;;;;;;0.10;0.10;;;10.70;99.90;;;;;;4990419;28;20040;-78
2024/02/01 13:53:18;;;;;;;0.47;0.28;;;10.60;1.00;;;;;;4984304;28;20030;-79
2024/02/01 13:55:44;;;;;;;0.30;0.30;;;10.60;1.00;;;;;;4979680;28;20027;-78
2024/02/01 13:58:11;;;;;;;0.52;0.30;;;10.50;1.00;;;;;;4985750;28;20027;-79
2024/02/01 14:00:37;;;;;;;0.30;0.30;;;10.50;1.00;;;;;;4984892;28;20361;-79